Time;durP1;ratioP1;P1;durP2;ratioP2;P2;SDS_P1;SDS_P2;PMS_P1;PMS_P2;Temp;Humidity;BMP_temperature;BMP_pressure;BME280_temperature;BME280_humidity;BME280_pressure;Samples;Min_cycle;Max_cycle;Signal;HPM_P1;HPM_P2
2022/02/12 00:00:42;;;;;;;1.48;0.40;;;;;;;;;;6306679;22;20019;-81
2022/02/12 00:03:12;;;;;;;2.95;1.33;;;;;;;;;;6309570;22;20058;-81
2022/02/12 00:05:44;;;;;;;1.90;0.90;;;;;;;;;;6309387;22;19999;-81
2022/02/12 00:08:14;;;;;;;3.35;0.98;;;;;;;;;;6336101;22;20001;-81
2022/02/12 00:10:52;;;;;;;1.83;1.03;;;;;;;;;;6309332;22;20023;-81
2022/02/12 00:13:21;;;;;;;2.75;0.82;;;;;;;;;;6336320;22;20035;-81
2022/02/12 00:15:51;;;;;;;2.33;0.95;;;;;;;;;;6301208;22;20015;-81
2022/02/12 00:18:20;;;;;;;3.53;1.25;;;;;;;;;;6309899;22;20041;-81
2022/02/12 00:20:56;;;;;;;6.45;0.70;;;;;;;;;;6309902;22;20021;-81
2022/02/12 00:23:26;;;;;;;2.87;0.87;;;;;;;;;;6336527;22;20007;-81
2022/02/12 00:26:16;;;;;;;4.78;1.08;;;;;;;;;;6285800;22;20058;-81
2022/02/12 00:28:49;;;;;;;12.20;1.02;;;;;;;;;;6336464;22;19995;-81
2022/02/12 00:31:19;;;;;;;3.00;0.73;;;;;;;;;;6333879;22;20457;-81
2022/02/12 00:33:48;;;;;;;4.18;1.38;;;;;;;;;;6284424;22;20043;-81
2022/02/12 00:36:17;;;;;;;3.10;0.90;;;;;;;;;;6309594;22;20015;-81
2022/02/12 00:38:50;;;;;;;2.33;1.08;;;;;;;;;;6303668;22;20022;-81
2022/02/12 00:41:21;;;;;;;5.45;0.90;;;;;;;;;;6304376;22;20000;-81
2022/02/12 00:43:51;;;;;;;7.70;1.02;;;;;;;;;;6303591;22;20011;-81
2022/02/12 00:46:27;;;;;;;5.30;1.35;;;;;;;;;;6287695;22;20008;-81
2022/02/12 00:48:57;;;;;;;10.13;0.87;;;;;;;;;;6273824;22;20059;-81
2022/02/12 00:51:27;;;;;;;2.88;0.85;;;;;;;;;;6234617;23;20020;-81
2022/02/12 00:53:56;;;;;;;2.15;1.23;;;;;;;;;;6273142;22;20012;-80
2022/02/12 00:56:28;;;;;;;1.65;0.85;;;;;;;;;;6246203;23;20008;-80
2022/02/12 00:58:57;;;;;;;2.85;1.13;;;;;;;;;;6245892;23;20016;-81
2022/02/12 01:01:27;;;;;;;1.70;1.00;;;;;;;;;;6244479;23;20463;-80
2022/02/12 01:03:56;;;;;;;2.30;0.50;;;;;;;;;;6273314;22;20023;-81
2022/02/12 01:06:26;;;;;;;3.13;1.23;;;;;;;;;;6247663;23;20010;-80
2022/02/12 01:08:57;;;;;;;2.25;0.93;;;;;;;;;;6247320;23;20008;-81
2022/02/12 01:11:29;;;;;;;1.70;0.80;;;;;;;;;;6247210;23;20026;-80
2022/02/12 01:13:59;;;;;;;4.63;1.07;;;;;;;;;;6221744;23;20020;-81
2022/02/12 01:16:29;;;;;;;1.80;0.82;;;;;;;;;;6260629;22;20068;-82
2022/02/12 01:18:59;;;;;;;8.75;1.38;;;;;;;;;;6304787;22;19996;-81
2022/02/12 01:21:29;;;;;;;7.30;0.98;;;;;;;;;;6304200;22;20011;-81
2022/02/12 01:23:59;;;;;;;2.10;0.88;;;;;;;;;;6252733;22;20016;-81
2022/02/12 01:26:31;;;;;;;4.30;1.23;;;;;;;;;;6252491;22;20006;-81
2022/02/12 01:29:01;;;;;;;4.38;0.90;;;;;;;;;;6253118;22;20008;-81
2022/02/12 01:31:31;;;;;;;3.70;1.05;;;;;;;;;;6276111;22;20042;-81
2022/02/12 01:34:19;;;;;;;2.75;1.20;;;;;;;;;;6305040;22;20034;-81
2022/02/12 01:37:26;;;;;;;1.40;0.60;;;;;;;;;;6304470;22;20042;-80
2022/02/12 01:39:56;;;;;;;7.30;0.83;;;;;;;;;;6277849;22;20007;-81
2022/02/12 01:42:45;;;;;;;4.80;0.77;;;;;;;;;;6304578;22;20070;-80
2022/02/12 01:45:15;;;;;;;2.67;0.75;;;;;;;;;;6277977;22;20015;-82
2022/02/12 01:47:44;;;;;;;1.90;0.75;;;;;;;;;;6277295;22;20047;-80
2022/02/12 01:50:19;;;;;;;2.88;1.30;;;;;;;;;;6303703;22;20007;-81
2022/02/12 01:52:49;;;;;;;6.00;1.03;;;;;;;;;;6303333;22;20059;-80
2022/02/12 01:55:51;;;;;;;1.20;0.50;;;;;;;;;;6277052;22;20000;-81
2022/02/12 01:58:22;;;;;;;4.68;1.30;;;;;;;;;;6303612;22;20031;-79
2022/02/12 02:00:52;;;;;;;2.47;1.30;;;;;;;;;;6268213;22;20019;-81
2022/02/12 02:03:22;;;;;;;4.35;2.25;;;;;;;;;;6276023;22;20100;-81
2022/02/12 02:05:51;;;;;;;2.17;0.80;;;;;;;;;;6302772;22;20004;-81
2022/02/12 02:08:20;;;;;;;1.90;1.17;;;;;;;;;;6304115;22;20004;-81
2022/02/12 02:10:55;;;;;;;7.18;1.52;;;;;;;;;;6304848;22;20012;-81
2022/02/12 02:13:27;;;;;;;1.58;0.63;;;;;;;;;;6304986;22;20004;-81
2022/02/12 02:15:57;;;;;;;1.38;0.50;;;;;;;;;;6277293;22;20019;-80
2022/02/12 02:18:51;;;;;;;1.90;0.63;;;;;;;;;;6253898;22;20019;-81
2022/02/12 02:21:21;;;;;;;1.92;0.93;;;;;;;;;;6305909;22;19995;-80
2022/02/12 02:23:52;;;;;;;1.73;0.85;;;;;;;;;;6254545;22;20030;-81
2022/02/12 02:26:22;;;;;;;3.65;1.20;;;;;;;;;;6280133;22;20027;-82
2022/02/12 02:28:51;;;;;;;4.28;1.17;;;;;;;;;;6280369;22;20046;-81
2022/02/12 02:31:20;;;;;;;4.33;1.37;;;;;;;;;;6304779;22;20037;-81
2022/02/12 02:33:54;;;;;;;8.55;1.25;;;;;;;;;;6305943;22;20008;-81
2022/02/12 02:36:24;;;;;;;2.20;0.85;;;;;;;;;;6306442;22;20012;-82
2022/02/12 02:38:54;;;;;;;4.28;2.33;;;;;;;;;;6279655;22;20026;-81
2022/02/12 02:41:26;;;;;;;2.65;1.00;;;;;;;;;;6280428;22;20030;-81
2022/02/12 02:44:01;;;;;;;5.27;1.17;;;;;;;;;;6278846;22;20016;-81
2022/02/12 02:58:07;;;;;;;3.50;0.93;;;;;;;;;;6278887;22;20042;-80
2022/02/12 03:00:38;;;;;;;4.97;1.08;;;;;;;;;;6270492;22;20019;-80
2022/02/12 03:03:08;;;;;;;3.83;1.27;;;;;;;;;;6276899;22;20018;-80
2022/02/12 03:06:18;;;;;;;5.68;2.50;;;;;;;;;;6302428;22;20026;-80
2022/02/12 03:14:43;;;;;;;1.95;0.85;;;;;;;;;;6303272;22;20068;-81
2022/02/12 03:17:15;;;;;;;2.10;0.77;;;;;;;;;;6270491;22;20020;-80
2022/02/12 03:19:50;;;;;;;3.47;0.98;;;;;;;;;;6252433;22;20041;-80
2022/02/12 03:22:22;;;;;;;3.17;2.03;;;;;;;;;;6278157;22;20047;-82
2022/02/12 03:25:11;;;;;;;3.33;1.10;;;;;;;;;;6251447;22;20020;-80
2022/02/12 05:37:42;;;;;;;1.33;0.57;;;;;;;;;;6275584;22;20012;-79
2022/02/12 05:40:14;;;;;;;3.33;0.87;;;;;;;;;;6275870;22;20026;-79
2022/02/12 05:42:47;;;;;;;2.50;1.17;;;;;;;;;;6275438;22;20026;-79
2022/02/12 05:45:17;;;;;;;3.50;1.27;;;;;;;;;;6301691;22;20046;-78
2022/02/12 05:47:47;;;;;;;1.85;1.20;;;;;;;;;;6278448;22;20026;-80
2022/02/12 05:50:19;;;;;;;8.13;1.98;;;;;;;;;;6305550;22;20016;-80
2022/02/12 05:52:51;;;;;;;3.67;1.13;;;;;;;;;;6277975;22;20046;-79
2022/02/12 05:58:44;;;;;;;4.28;0.50;;;;;;;;;;6306611;22;20000;-82
2022/02/12 06:01:32;;;;;;;2.55;0.45;;;;;;;;;;6304429;22;20020;-82
2022/02/12 06:13:19;;;;;;;1.35;0.57;;;;;;;;;;6284106;22;20016;-80
2022/02/12 06:15:57;;;;;;;1.63;0.80;;;;;;;;;;6239167;23;20004;-80
2022/02/12 06:22:28;;;;;;;4.43;1.53;;;;;;;;;;6293153;22;20091;-79
2022/02/12 07:31:57;;;;;;;3.45;2.28;;;;;;;;;;6206291;22;20009;-79
2022/02/12 08:15:46;;;;;;;3.38;1.45;;;;;;;;;;6189137;22;20019;-75
2022/02/12 09:01:20;;;;;;;3.95;1.85;;;;;;;;;;6248555;22;20031;-81
2022/02/12 10:56:14;;;;;;;4.10;0.80;;;;;;;;;;6229077;22;20019;-80
2022/02/12 13:51:33;;;;;;;1.80;0.50;;;;;;;;;;6211254;22;20031;-79
2022/02/12 14:34:36;;;;;;;2.60;0.60;;;;;;;;;;4193036;27;25639799;-90
2022/02/12 14:37:06;;;;;;;3.53;0.87;;;;;;;;;;5057889;28;20092;-88
2022/02/12 14:39:35;;;;;;;2.28;0.88;;;;;;;;;;5054292;28;20069;-88
2022/02/12 14:42:05;;;;;;;1.67;0.70;;;;;;;;;;5066937;28;20471;-89
2022/02/12 14:44:34;;;;;;;2.78;1.00;;;;;;;;;;5078454;28;20075;-90
2022/02/12 14:50:21;;;;;;;3.07;1.00;;;;;;;;;;4992927;28;20038;-90
2022/02/12 14:52:53;;;;;;;2.25;0.60;;;;;;;;;;4993628;28;20061;-91
2022/02/12 14:55:22;;;;;;;1.20;0.40;;;;;;;;;;4994643;28;20153;-89
2022/02/12 14:57:51;;;;;;;3.40;0.70;;;;;;;;;;4990760;28;20045;-90
2022/02/12 15:00:20;;;;;;;2.35;0.47;;;;;;;;;;4988731;28;20515;-89
2022/02/12 15:02:49;;;;;;;1.80;0.53;;;;;;;;;;4993102;28;20041;-90
2022/02/12 15:05:18;;;;;;;4.25;1.20;;;;;;;;;;5023026;28;20033;-90
2022/02/12 15:07:49;;;;;;;2.90;0.60;;;;;;;;;;4992126;28;20042;-90
2022/02/12 15:10:21;;;;;;;1.30;0.40;;;;;;;;;;4997407;28;20454;-90
2022/02/12 15:12:57;;;;;;;4.30;0.75;;;;;;;;;;5005979;28;20052;-90
2022/02/12 15:15:28;;;;;;;1.37;0.50;;;;;;;;;;5019541;28;20050;-91
2022/02/12 15:18:04;;;;;;;1.40;0.40;;;;;;;;;;5008699;28;20046;-90
2022/02/12 15:20:34;;;;;;;1.42;0.52;;;;;;;;;;5008845;28;20046;-90
2022/02/12 15:23:07;;;;;;;5.05;0.70;;;;;;;;;;4996836;28;20443;-89
2022/02/12 15:25:38;;;;;;;1.08;0.20;;;;;;;;;;4990546;28;20069;-91
2022/02/12 15:28:12;;;;;;;1.83;0.60;;;;;;;;;;5007313;28;20473;-90
2022/02/12 15:30:45;;;;;;;3.53;0.90;;;;;;;;;;4986250;28;20034;-88
2022/02/12 15:33:14;;;;;;;1.83;0.65;;;;;;;;;;4974877;28;20050;-79
2022/02/12 15:35:43;;;;;;;2.33;0.88;;;;;;;;;;4968374;28;20047;-86
2022/02/12 15:38:13;;;;;;;1.50;0.47;;;;;;;;;;4955984;28;20161;-87
2022/02/12 15:40:43;;;;;;;2.10;0.60;;;;;;;;;;4957237;28;20113;-88
2022/02/12 15:43:11;;;;;;;6.75;0.82;;;;;;;;;;4967456;28;20055;-84
2022/02/12 15:45:42;;;;;;;1.63;0.60;;;;;;;;;;4963374;28;20047;-86
2022/02/12 15:48:13;;;;;;;2.13;0.55;;;;;;;;;;4969803;28;20039;-85
2022/02/12 15:50:45;;;;;;;1.65;0.50;;;;;;;;;;4969589;28;20027;-84
2022/02/12 15:53:14;;;;;;;1.67;0.57;;;;;;;;;;4961458;28;20046;-86
2022/02/12 15:55:50;;;;;;;1.80;0.40;;;;;;;;;;4962339;28;20054;-86
2022/02/12 15:58:19;;;;;;;1.65;0.70;;;;;;;;;;4999733;28;20039;-89
2022/02/12 16:00:49;;;;;;;1.88;0.60;;;;;;;;;;4964949;28;20054;-87
2022/02/12 16:03:19;;;;;;;2.33;0.70;;;;;;;;;;4984708;28;20154;-87
2022/02/12 16:05:48;;;;;;;4.13;1.37;;;;;;;;;;4954124;28;20050;-87
2022/02/12 16:08:18;;;;;;;2.50;0.95;;;;;;;;;;4969229;28;20109;-87
2022/02/12 16:10:49;;;;;;;1.95;0.55;;;;;;;;;;4969508;28;20149;-84
2022/02/12 16:16:12;;;;;;;1.77;0.80;;;;;;;;;;4978990;28;20066;-83
2022/02/12 16:19:07;;;;;;;4.07;0.73;;;;;;;;;;4961567;28;20047;-85
2022/02/12 16:21:37;;;;;;;5.28;0.65;;;;;;;;;;4967366;28;20126;-88
2022/02/12 16:24:11;;;;;;;2.22;0.57;;;;;;;;;;4969959;28;20090;-89
2022/02/12 16:26:48;;;;;;;1.70;0.65;;;;;;;;;;4965707;28;20058;-84
2022/02/12 16:29:17;;;;;;;1.55;0.43;;;;;;;;;;4968552;28;20049;-82
2022/02/12 16:31:46;;;;;;;3.47;0.67;;;;;;;;;;4958224;28;20127;-89
2022/02/12 16:34:15;;;;;;;2.80;1.20;;;;;;;;;;4967198;28;20063;-83
2022/02/12 16:36:44;;;;;;;3.58;0.85;;;;;;;;;;4971742;28;20054;-87
2022/02/12 16:39:12;;;;;;;2.60;1.05;;;;;;;;;;4988533;28;20042;-77
2022/02/12 16:41:41;;;;;;;4.30;1.60;;;;;;;;;;4984772;28;20101;-87
2022/02/12 16:44:11;;;;;;;5.97;1.57;;;;;;;;;;4999375;28;20124;-85
2022/02/12 16:46:41;;;;;;;4.22;1.30;;;;;;;;;;4970331;28;20046;-88
2022/02/12 16:49:10;;;;;;;2.15;0.60;;;;;;;;;;4994598;28;20047;-85
2022/02/12 16:51:40;;;;;;;3.88;1.23;;;;;;;;;;5006379;28;20030;-84
2022/02/12 16:54:10;;;;;;;4.88;1.27;;;;;;;;;;4989120;28;20504;-85
2022/02/12 16:56:41;;;;;;;2.97;1.13;;;;;;;;;;4985374;28;20105;-85
2022/02/12 16:59:11;;;;;;;3.42;1.10;;;;;;;;;;5005901;28;20104;-86
2022/02/12 17:01:43;;;;;;;6.68;1.75;;;;;;;;;;4986524;28;20091;-86
2022/02/12 17:04:13;;;;;;;3.67;1.40;;;;;;;;;;4975259;28;20070;-89
2022/02/12 17:06:43;;;;;;;5.30;1.95;;;;;;;;;;4976710;28;20034;-88
2022/02/12 17:09:13;;;;;;;4.30;1.60;;;;;;;;;;4988688;28;20076;-93
2022/02/12 17:11:42;;;;;;;2.47;1.10;;;;;;;;;;4991439;28;20061;-89
2022/02/12 17:14:38;;;;;;;3.00;1.00;;;;;;;;;;5004445;28;20619;-91
2022/02/12 17:17:08;;;;;;;4.05;1.58;;;;;;;;;;4968218;28;20063;-87
2022/02/12 17:19:44;;;;;;;5.80;1.08;;;;;;;;;;4984756;28;20055;-89
2022/02/12 17:22:14;;;;;;;3.97;1.47;;;;;;;;;;4972166;28;20042;-92
2022/02/12 17:24:47;;;;;;;4.72;0.98;;;;;;;;;;5003129;28;20104;-89
2022/02/12 17:27:17;;;;;;;2.45;1.10;;;;;;;;;;4972867;28;20055;-89
2022/02/12 17:29:49;;;;;;;5.40;2.03;;;;;;;;;;5004296;28;20047;-92
2022/02/12 17:32:19;;;;;;;5.35;1.05;;;;;;;;;;5002791;28;20121;-91
2022/02/12 17:34:49;;;;;;;2.93;1.07;;;;;;;;;;4992086;28;20046;-90
2022/02/12 17:37:18;;;;;;;5.60;1.35;;;;;;;;;;5008825;28;20046;-89
2022/02/12 17:39:47;;;;;;;3.22;0.85;;;;;;;;;;4980614;28;20045;-89
2022/02/12 17:42:36;;;;;;;3.60;1.23;;;;;;;;;;5014135;28;20054;-89
2022/02/12 17:45:08;;;;;;;2.88;1.08;;;;;;;;;;4996343;28;20052;-90
2022/02/12 17:47:37;;;;;;;2.27;0.87;;;;;;;;;;4978671;28;20132;-89
2022/02/12 17:50:07;;;;;;;5.93;1.23;;;;;;;;;;5008849;28;20073;-89
2022/02/12 17:52:35;;;;;;;4.22;1.48;;;;;;;;;;5003188;28;20116;-89
2022/02/12 17:55:07;;;;;;;5.47;1.67;;;;;;;;;;5004805;28;20044;-90
2022/02/12 17:57:39;;;;;;;2.30;1.08;;;;;;;;;;4990744;28;20085;-89
2022/02/12 18:00:12;;;;;;;4.60;1.27;;;;;;;;;;4984293;28;20046;-91
2022/02/12 18:02:42;;;;;;;2.30;1.10;;;;;;;;;;5012492;28;20049;-89
2022/02/12 18:05:12;;;;;;;2.55;1.33;;;;;;;;;;5016775;28;20034;-89
2022/02/12 18:07:42;;;;;;;4.95;1.27;;;;;;;;;;5013593;28;20060;-89
2022/02/12 18:10:11;;;;;;;2.75;1.20;;;;;;;;;;5013995;28;20046;-89
2022/02/12 18:12:43;;;;;;;2.77;1.07;;;;;;;;;;5024364;28;20041;-89
2022/02/12 18:15:15;;;;;;;4.72;1.40;;;;;;;;;;5035334;28;20053;-87
2022/02/12 18:17:44;;;;;;;4.80;0.98;;;;;;;;;;5024164;28;20092;-89
2022/02/12 18:20:14;;;;;;;2.72;1.42;;;;;;;;;;5010216;28;20061;-89
2022/02/12 18:22:44;;;;;;;2.95;1.58;;;;;;;;;;5009192;28;20049;-90
2022/02/12 18:25:39;;;;;;;3.57;1.73;;;;;;;;;;5008505;28;20049;-89
2022/02/12 18:28:35;;;;;;;3.08;2.05;;;;;;;;;;5028072;28;20041;-88
2022/02/12 18:31:08;;;;;;;3.22;1.45;;;;;;;;;;5023321;28;20049;-89
2022/02/12 18:33:43;;;;;;;6.88;3.85;;;;;;;;;;5015167;28;20107;-88
2022/02/12 20:03:14;;;;;;;8.50;2.03;;;;;;;;;;4973158;23;20051;-87
